sensor_id;sensor_type;location;lat;lon;timestamp;pressure;altitude;pressure_sealevel;temperature;humidity
22572;BME280;11452;53.368;14.658;2023-01-25T00:04:58;103288.02;;;3.02;67.93
22572;BME280;11452;53.368;14.658;2023-01-25T00:10:04;103281.20;;;2.88;67.62
22572;BME280;11452;53.368;14.658;2023-01-25T00:15:10;103284.61;;;2.83;68.05
22572;BME280;11452;53.368;14.658;2023-01-25T00:20:16;103278.61;;;2.91;67.93
22572;BME280;11452;53.368;14.658;2023-01-25T00:25:23;103276.51;;;2.98;68.45
22572;BME280;11452;53.368;14.658;2023-01-25T00:30:28;103269.91;;;2.98;68.63
22572;BME280;11452;53.368;14.658;2023-01-25T00:35:34;103256.77;;;3.03;68.33
22572;BME280;11452;53.368;14.658;2023-01-25T00:40:39;103263.25;;;2.94;67.98
22572;BME280;11452;53.368;14.658;2023-01-25T00:45:45;103252.76;;;3.00;68.31
22572;BME280;11452;53.368;14.658;2023-01-25T00:50:50;103250.83;;;2.88;68.16
22572;BME280;11452;53.368;14.658;2023-01-25T00:55:56;103249.69;;;2.72;68.21
22572;BME280;11452;53.368;14.658;2023-01-25T01:01:01;103246.45;;;2.64;68.72
22572;BME280;11452;53.368;14.658;2023-01-25T01:06:10;103240.70;;;2.63;68.69
22572;BME280;11452;53.368;14.658;2023-01-25T01:11:16;103243.89;;;2.68;68.67
22572;BME280;11452;53.368;14.658;2023-01-25T01:16:21;103241.66;;;2.66;68.87
22572;BME280;11452;53.368;14.658;2023-01-25T01:21:28;103236.43;;;2.69;69.11
22572;BME280;11452;53.368;14.658;2023-01-25T01:26:33;103230.27;;;2.69;69.16
22572;BME280;11452;53.368;14.658;2023-01-25T01:31:38;103226.19;;;2.63;68.94
22572;BME280;11452;53.368;14.658;2023-01-25T01:37:03;103222.48;;;2.76;69.46
22572;BME280;11452;53.368;14.658;2023-01-25T01:42:09;103223.36;;;2.78;69.35
22572;BME280;11452;53.368;14.658;2023-01-25T01:47:38;103213.26;;;2.79;69.65
22572;BME280;11452;53.368;14.658;2023-01-25T01:52:45;103215.02;;;2.77;69.31
22572;BME280;11452;53.368;14.658;2023-01-25T01:57:53;103214.59;;;2.78;69.71
22572;BME280;11452;53.368;14.658;2023-01-25T02:03:02;103206.95;;;2.70;69.21
22572;BME280;11452;53.368;14.658;2023-01-25T02:08:09;103192.98;;;2.75;69.87
22572;BME280;11452;53.368;14.658;2023-01-25T02:13:18;103193.59;;;2.87;69.61
22572;BME280;11452;53.368;14.658;2023-01-25T02:18:24;103184.98;;;2.71;69.41
22572;BME280;11452;53.368;14.658;2023-01-25T02:29:01;103180.23;;;2.50;69.42
22572;BME280;11452;53.368;14.658;2023-01-25T02:34:06;103179.00;;;2.55;69.56
22572;BME280;11452;53.368;14.658;2023-01-25T02:39:17;103184.30;;;2.56;70.01
22572;BME280;11452;53.368;14.658;2023-01-25T02:44:27;103178.56;;;2.55;70.00
22572;BME280;11452;53.368;14.658;2023-01-25T02:49:36;103170.73;;;2.60;70.09
22572;BME280;11452;53.368;14.658;2023-01-25T02:54:43;103163.48;;;2.48;70.07
22572;BME280;11452;53.368;14.658;2023-01-25T02:59:49;103166.02;;;2.40;70.00
22572;BME280;11452;53.368;14.658;2023-01-25T03:04:54;103160.42;;;2.24;70.18
22572;BME280;11452;53.368;14.658;2023-01-25T03:10:00;103145.36;;;2.43;70.84
22572;BME280;11452;53.368;14.658;2023-01-25T03:15:08;103135.61;;;2.37;70.40
22572;BME280;11452;53.368;14.658;2023-01-25T03:20:14;103122.39;;;2.36;70.62
22572;BME280;11452;53.368;14.658;2023-01-25T03:25:20;103138.41;;;2.20;70.31
22572;BME280;11452;53.368;14.658;2023-01-25T03:30:33;103134.45;;;2.20;70.86
22572;BME280;11452;53.368;14.658;2023-01-25T03:35:38;103120.84;;;2.24;70.94
22572;BME280;11452;53.368;14.658;2023-01-25T03:40:44;103107.63;;;2.21;70.97
22572;BME280;11452;53.368;14.658;2023-01-25T03:45:54;103098.86;;;2.23;71.17
22572;BME280;11452;53.368;14.658;2023-01-25T03:51:00;103096.92;;;2.38;71.41
22572;BME280;11452;53.368;14.658;2023-01-25T03:56:10;103082.94;;;2.45;71.22
22572;BME280;11452;53.368;14.658;2023-01-25T04:01:19;103073.98;;;2.34;70.90
22572;BME280;11452;53.368;14.658;2023-01-25T04:06:25;103068.09;;;2.24;70.82
22572;BME280;11452;53.368;14.658;2023-01-25T04:11:31;103056.11;;;2.16;70.95
22572;BME280;11452;53.368;14.658;2023-01-25T04:16:37;103057.19;;;2.29;71.48
22572;BME280;11452;53.368;14.658;2023-01-25T04:21:47;103042.29;;;2.32;71.58
22572;BME280;11452;53.368;14.658;2023-01-25T04:26:53;103045.48;;;2.39;71.57
22572;BME280;11452;53.368;14.658;2023-01-25T04:31:59;103042.34;;;2.35;71.19
22572;BME280;11452;53.368;14.658;2023-01-25T04:37:05;103037.34;;;2.26;71.45
22572;BME280;11452;53.368;14.658;2023-01-25T04:42:12;103025.16;;;2.34;71.76
22572;BME280;11452;53.368;14.658;2023-01-25T04:47:20;103026.08;;;2.36;71.67
22572;BME280;11452;53.368;14.658;2023-01-25T04:52:25;103021.20;;;2.34;71.69
22572;BME280;11452;53.368;14.658;2023-01-25T04:57:31;103008.38;;;2.29;71.49
22572;BME280;11452;53.368;14.658;2023-01-25T05:02:36;103005.62;;;2.20;71.51
22572;BME280;11452;53.368;14.658;2023-01-25T05:07:43;103001.66;;;2.20;71.64
22572;BME280;11452;53.368;14.658;2023-01-25T05:12:49;102994.61;;;2.19;71.87
22572;BME280;11452;53.368;14.658;2023-01-25T05:17:54;102987.67;;;2.27;72.23
22572;BME280;11452;53.368;14.658;2023-01-25T05:23:00;102982.40;;;2.27;72.05
22572;BME280;11452;53.368;14.658;2023-01-25T05:28:06;102971.20;;;2.12;71.84
22572;BME280;11452;53.368;14.658;2023-01-25T05:33:29;102972.19;;;2.19;72.39
22572;BME280;11452;53.368;14.658;2023-01-25T05:38:34;102970.44;;;2.19;72.36
22572;BME280;11452;53.368;14.658;2023-01-25T05:43:40;102967.38;;;2.23;72.63
22572;BME280;11452;53.368;14.658;2023-01-25T05:48:47;102978.84;;;2.25;72.30
22572;BME280;11452;53.368;14.658;2023-01-25T05:53:55;102983.17;;;2.18;72.38
22572;BME280;11452;53.368;14.658;2023-01-25T05:59:01;102980.81;;;2.08;72.51
22572;BME280;11452;53.368;14.658;2023-01-25T06:04:08;102965.92;;;2.12;72.68
22572;BME280;11452;53.368;14.658;2023-01-25T06:09:14;102963.81;;;2.18;72.65
22572;BME280;11452;53.368;14.658;2023-01-25T06:14:21;102963.06;;;2.28;72.56
22572;BME280;11452;53.368;14.658;2023-01-25T06:19:28;102956.50;;;2.29;72.63
22572;BME280;11452;53.368;14.658;2023-01-25T06:24:44;102967.27;;;2.46;72.90
22572;BME280;11452;53.368;14.658;2023-01-25T06:29:50;102956.95;;;2.30;72.46
22572;BME280;11452;53.368;14.658;2023-01-25T06:34:55;102955.61;;;2.29;72.63
22572;BME280;11452;53.368;14.658;2023-01-25T06:40:01;102943.91;;;2.10;72.36
22572;BME280;11452;53.368;14.658;2023-01-25T06:45:07;102947.67;;;2.27;73.01
22572;BME280;11452;53.368;14.658;2023-01-25T06:50:14;102943.34;;;2.32;72.88
22572;BME280;11452;53.368;14.658;2023-01-25T06:55:20;102944.80;;;2.11;72.22
22572;BME280;11452;53.368;14.658;2023-01-25T07:00:26;102946.02;;;2.04;72.45
22572;BME280;11452;53.368;14.658;2023-01-25T07:05:32;102937.73;;;2.08;72.57
22572;BME280;11452;53.368;14.658;2023-01-25T07:10:38;102924.49;;;2.05;72.82
22572;BME280;11452;53.368;14.658;2023-01-25T07:15:43;102926.50;;;2.21;73.02
22572;BME280;11452;53.368;14.658;2023-01-25T07:20:49;102913.05;;;2.35;73.25
22572;BME280;11452;53.368;14.658;2023-01-25T07:25:54;102913.03;;;2.34;72.60
22572;BME280;11452;53.368;14.658;2023-01-25T07:31:07;102908.20;;;2.35;72.76
22572;BME280;11452;53.368;14.658;2023-01-25T07:36:13;102907.28;;;2.31;72.62
22572;BME280;11452;53.368;14.658;2023-01-25T07:41:19;102893.87;;;2.15;72.67
22572;BME280;11452;53.368;14.658;2023-01-25T07:46:26;102892.83;;;2.02;72.55
22572;BME280;11452;53.368;14.658;2023-01-25T07:51:32;102894.48;;;1.95;72.97
22572;BME280;11452;53.368;14.658;2023-01-25T07:56:38;102895.47;;;2.02;73.12
22572;BME280;11452;53.368;14.658;2023-01-25T08:01:44;102876.13;;;2.04;73.12
22572;BME280;11452;53.368;14.658;2023-01-25T08:06:49;102870.41;;;2.02;73.14
22572;BME280;11452;53.368;14.658;2023-01-25T08:11:55;102868.70;;;2.07;73.36
22572;BME280;11452;53.368;14.658;2023-01-25T08:17:00;102867.61;;;2.22;73.60
22572;BME280;11452;53.368;14.658;2023-01-25T08:22:07;102870.20;;;2.19;73.15
22572;BME280;11452;53.368;14.658;2023-01-25T08:27:13;102870.27;;;2.27;73.26
22572;BME280;11452;53.368;14.658;2023-01-25T08:32:18;102865.66;;;2.09;73.06
22572;BME280;11452;53.368;14.658;2023-01-25T08:37:24;102861.19;;;2.02;73.05
22572;BME280;11452;53.368;14.658;2023-01-25T08:42:31;102860.06;;;2.17;73.47
22572;BME280;11452;53.368;14.658;2023-01-25T08:47:36;102858.67;;;2.13;73.39
22572;BME280;11452;53.368;14.658;2023-01-25T08:52:42;102859.63;;;2.18;73.40
22572;BME280;11452;53.368;14.658;2023-01-25T08:57:47;102856.92;;;2.13;73.32
22572;BME280;11452;53.368;14.658;2023-01-25T09:02:53;102857.05;;;2.22;73.40
22572;BME280;11452;53.368;14.658;2023-01-25T09:07:58;102865.84;;;2.24;73.10
22572;BME280;11452;53.368;14.658;2023-01-25T09:13:04;102869.84;;;2.27;73.32
22572;BME280;11452;53.368;14.658;2023-01-25T09:18:11;102862.75;;;2.23;73.08
22572;BME280;11452;53.368;14.658;2023-01-25T09:23:18;102857.47;;;2.23;73.36
22572;BME280;11452;53.368;14.658;2023-01-25T09:28:26;102857.21;;;2.36;74.14
22572;BME280;11452;53.368;14.658;2023-01-25T09:33:35;102856.98;;;2.55;73.23
22572;BME280;11452;53.368;14.658;2023-01-25T09:38:40;102842.91;;;2.54;73.11
22572;BME280;11452;53.368;14.658;2023-01-25T09:54:30;102817.70;;;2.43;73.23
22572;BME280;11452;53.368;14.658;2023-01-25T09:59:40;102818.16;;;2.44;72.73
22572;BME280;11452;53.368;14.658;2023-01-25T10:04:48;102813.66;;;2.34;72.58
22572;BME280;11452;53.368;14.658;2023-01-25T10:10:04;102800.95;;;2.41;72.99
22572;BME280;11452;53.368;14.658;2023-01-25T10:15:22;102792.70;;;2.50;72.84
22572;BME280;11452;53.368;14.658;2023-01-25T10:20:39;102791.48;;;2.60;72.78
22572;BME280;11452;53.368;14.658;2023-01-25T10:25:42;102776.80;;;2.40;72.01
22572;BME280;11452;53.368;14.658;2023-01-25T10:31:05;102770.61;;;2.38;72.38
22572;BME280;11452;53.368;14.658;2023-01-25T10:36:16;102772.42;;;2.46;72.54
22572;BME280;11452;53.368;14.658;2023-01-25T10:41:29;102757.56;;;2.54;72.64
22572;BME280;11452;53.368;14.658;2023-01-25T10:46:33;102741.69;;;2.51;72.19
22572;BME280;11452;53.368;14.658;2023-01-25T10:51:40;102732.04;;;2.53;72.52
22572;BME280;11452;53.368;14.658;2023-01-25T10:56:45;102727.69;;;2.61;72.73
22572;BME280;11452;53.368;14.658;2023-01-25T11:01:52;102713.95;;;2.48;71.95
22572;BME280;11452;53.368;14.658;2023-01-25T11:06:58;102713.11;;;2.52;72.71
22572;BME280;11452;53.368;14.658;2023-01-25T11:12:17;102697.22;;;2.46;72.25
22572;BME280;11452;53.368;14.658;2023-01-25T11:22:34;102687.77;;;2.20;71.99
22572;BME280;11452;53.368;14.658;2023-01-25T11:27:39;102682.07;;;2.25;73.05
22572;BME280;11452;53.368;14.658;2023-01-25T11:32:45;102674.59;;;2.24;72.55
22572;BME280;11452;53.368;14.658;2023-01-25T11:38:02;102672.98;;;2.38;72.74
22572;BME280;11452;53.368;14.658;2023-01-25T11:54:02;102659.50;;;2.60;72.79
22572;BME280;11452;53.368;14.658;2023-01-25T11:59:39;102643.18;;;2.52;72.64
22572;BME280;11452;53.368;14.658;2023-01-25T12:05:10;102641.36;;;2.46;73.12
22572;BME280;11452;53.368;14.658;2023-01-25T12:10:21;102630.98;;;2.69;73.42
22572;BME280;11452;53.368;14.658;2023-01-25T12:15:37;102611.66;;;2.73;73.42
22572;BME280;11452;53.368;14.658;2023-01-25T12:21:05;102607.23;;;2.70;73.26
22572;BME280;11452;53.368;14.658;2023-01-25T12:26:29;102598.57;;;2.97;73.71
22572;BME280;11452;53.368;14.658;2023-01-25T12:31:40;102583.19;;;3.00;73.38
22572;BME280;11452;53.368;14.658;2023-01-25T12:36:45;102583.50;;;2.73;72.11
22572;BME280;11452;53.368;14.658;2023-01-25T12:42:11;102562.88;;;2.85;72.96
22572;BME280;11452;53.368;14.658;2023-01-25T12:53:04;102544.28;;;2.64;72.57
22572;BME280;11452;53.368;14.658;2023-01-25T13:09:17;102517.52;;;2.81;73.09
22572;BME280;11452;53.368;14.658;2023-01-25T13:14:37;102509.25;;;2.95;72.91
22572;BME280;11452;53.368;14.658;2023-01-25T13:19:44;102504.75;;;2.79;72.48
22572;BME280;11452;53.368;14.658;2023-01-25T13:30:32;102486.72;;;2.75;73.11
22572;BME280;11452;53.368;14.658;2023-01-25T13:35:42;102474.37;;;2.71;72.89
22572;BME280;11452;53.368;14.658;2023-01-25T13:41:02;102471.73;;;2.71;73.19
22572;BME280;11452;53.368;14.658;2023-01-25T13:46:13;102456.75;;;2.66;73.05
22572;BME280;11452;53.368;14.658;2023-01-25T13:51:19;102447.11;;;2.80;73.52
22572;BME280;11452;53.368;14.658;2023-01-25T13:56:33;102451.14;;;2.94;73.76
22572;BME280;11452;53.368;14.658;2023-01-25T14:01:35;102450.71;;;3.03;73.82
22572;BME280;11452;53.368;14.658;2023-01-25T14:06:41;102425.23;;;3.33;74.15
22572;BME280;11452;53.368;14.658;2023-01-25T14:11:55;102426.95;;;3.16;73.02
22572;BME280;11452;53.368;14.658;2023-01-25T14:17:14;102426.50;;;3.04;72.94
22572;BME280;11452;53.368;14.658;2023-01-25T14:22:24;102411.05;;;2.84;72.89
22572;BME280;11452;53.368;14.658;2023-01-25T14:27:30;102407.95;;;2.72;73.19
22572;BME280;11452;53.368;14.658;2023-01-25T14:32:36;102400.92;;;2.74;73.30
22572;BME280;11452;53.368;14.658;2023-01-25T14:37:42;102393.02;;;2.86;73.48
22572;BME280;11452;53.368;14.658;2023-01-25T14:42:48;102392.55;;;2.81;73.08
22572;BME280;11452;53.368;14.658;2023-01-25T14:47:54;102371.89;;;2.77;73.51
22572;BME280;11452;53.368;14.658;2023-01-25T14:53:15;102364.39;;;2.72;73.56
22572;BME280;11452;53.368;14.658;2023-01-25T14:58:23;102355.55;;;2.62;73.59
22572;BME280;11452;53.368;14.658;2023-01-25T15:03:31;102344.56;;;2.64;74.07
22572;BME280;11452;53.368;14.658;2023-01-25T15:08:37;102345.03;;;2.82;74.17
22572;BME280;11452;53.368;14.658;2023-01-25T15:13:44;102334.91;;;2.68;74.32
22572;BME280;11452;53.368;14.658;2023-01-25T15:18:54;102330.53;;;2.77;74.45
22572;BME280;11452;53.368;14.658;2023-01-25T15:24:02;102323.48;;;2.84;74.34
22572;BME280;11452;53.368;14.658;2023-01-25T15:29:19;102322.59;;;2.71;74.01
22572;BME280;11452;53.368;14.658;2023-01-25T15:34:28;102325.64;;;2.62;74.27
22572;BME280;11452;53.368;14.658;2023-01-25T15:39:35;102312.00;;;3.54;72.41
22572;BME280;11452;53.368;14.658;2023-01-25T15:44:42;102312.06;;;2.93;73.37
22572;BME280;11452;53.368;14.658;2023-01-25T15:49:47;102316.88;;;2.86;74.06
22572;BME280;11452;53.368;14.658;2023-01-25T15:54:53;102308.98;;;2.90;74.64
22572;BME280;11452;53.368;14.658;2023-01-25T16:00:00;102306.33;;;2.87;74.44
22572;BME280;11452;53.368;14.658;2023-01-25T16:05:07;102304.11;;;2.81;74.85
22572;BME280;11452;53.368;14.658;2023-01-25T16:10:21;102297.95;;;2.83;74.58
22572;BME280;11452;53.368;14.658;2023-01-25T16:15:27;102292.68;;;2.72;74.76
22572;BME280;11452;53.368;14.658;2023-01-25T16:20:33;102285.66;;;2.77;74.87
22572;BME280;11452;53.368;14.658;2023-01-25T16:25:40;102283.87;;;2.84;75.14
22572;BME280;11452;53.368;14.658;2023-01-25T16:30:46;102284.32;;;2.84;74.91
22572;BME280;11452;53.368;14.658;2023-01-25T16:36:09;102274.20;;;2.86;75.25
22572;BME280;11452;53.368;14.658;2023-01-25T16:41:11;102272.88;;;2.86;75.05
22572;BME280;11452;53.368;14.658;2023-01-25T16:46:21;102257.48;;;2.84;75.03
22572;BME280;11452;53.368;14.658;2023-01-25T16:51:28;102264.52;;;2.82;75.46
22572;BME280;11452;53.368;14.658;2023-01-25T16:56:33;102246.94;;;2.78;74.76
22572;BME280;11452;53.368;14.658;2023-01-25T17:01:39;102238.12;;;2.71;75.18
22572;BME280;11452;53.368;14.658;2023-01-25T17:06:48;102242.08;;;2.70;75.12
22572;BME280;11452;53.368;14.658;2023-01-25T17:11:54;102233.72;;;2.67;75.29
22572;BME280;11452;53.368;14.658;2023-01-25T17:16:59;102223.17;;;2.70;75.79
22572;BME280;11452;53.368;14.658;2023-01-25T17:22:05;102208.63;;;2.81;75.91
22572;BME280;11452;53.368;14.658;2023-01-25T17:27:11;102211.27;;;2.84;76.08
22572;BME280;11452;53.368;14.658;2023-01-25T17:32:18;102193.69;;;2.65;75.26
22572;BME280;11452;53.368;14.658;2023-01-25T17:37:23;102191.05;;;2.48;75.32
22572;BME280;11452;53.368;14.658;2023-01-25T17:42:29;102191.03;;;2.42;76.03
22572;BME280;11452;53.368;14.658;2023-01-25T17:47:34;102177.41;;;2.21;75.75
22572;BME280;11452;53.368;14.658;2023-01-25T17:52:40;102176.98;;;2.35;76.31
22572;BME280;11452;53.368;14.658;2023-01-25T17:57:45;102159.83;;;2.46;76.49
22572;BME280;11452;53.368;14.658;2023-01-25T18:02:51;102156.33;;;2.39;76.60
22572;BME280;11452;53.368;14.658;2023-01-25T18:07:58;102164.24;;;2.41;76.56
22572;BME280;11452;53.368;14.658;2023-01-25T18:13:03;102162.48;;;2.40;76.74
22572;BME280;11452;53.368;14.658;2023-01-25T18:18:08;102142.23;;;2.42;76.83
22572;BME280;11452;53.368;14.658;2023-01-25T18:23:14;102153.67;;;2.53;77.09
22572;BME280;11452;53.368;14.658;2023-01-25T18:28:19;102158.95;;;2.52;76.89
22572;BME280;11452;53.368;14.658;2023-01-25T18:33:25;102144.88;;;2.30;76.84
22572;BME280;11452;53.368;14.658;2023-01-25T18:38:31;102142.23;;;2.31;77.03
22572;BME280;11452;53.368;14.658;2023-01-25T18:43:37;102136.09;;;2.57;78.25
22572;BME280;11452;53.368;14.658;2023-01-25T18:48:42;102131.22;;;2.64;77.36
22572;BME280;11452;53.368;14.658;2023-01-25T18:53:49;102120.24;;;2.44;76.87
22572;BME280;11452;53.368;14.658;2023-01-25T18:58:55;102118.47;;;2.66;78.08
22572;BME280;11452;53.368;14.658;2023-01-25T19:04:01;102113.22;;;2.56;77.07
22572;BME280;11452;53.368;14.658;2023-01-25T19:09:07;102110.59;;;2.40;76.98
22572;BME280;11452;53.368;14.658;2023-01-25T19:14:12;102104.41;;;2.23;77.24
22572;BME280;11452;53.368;14.658;2023-01-25T19:19:18;102096.52;;;2.11;77.42
22572;BME280;11452;53.368;14.658;2023-01-25T19:24:25;102103.55;;;2.14;78.08
22572;BME280;11452;53.368;14.658;2023-01-25T19:29:31;102090.82;;;2.22;78.18
22572;BME280;11452;53.368;14.658;2023-01-25T19:34:37;102079.83;;;2.20;78.14
22572;BME280;11452;53.368;14.658;2023-01-25T19:39:43;102074.53;;;2.04;77.95
22572;BME280;11452;53.368;14.658;2023-01-25T19:44:49;102072.79;;;1.97;78.45
22572;BME280;11452;53.368;14.658;2023-01-25T19:49:54;102057.41;;;1.97;78.37
22572;BME280;11452;53.368;14.658;2023-01-25T19:55:00;102051.22;;;1.69;78.43
22572;BME280;11452;53.368;14.658;2023-01-25T20:00:07;102060.02;;;1.74;79.02
22572;BME280;11452;53.368;14.658;2023-01-25T20:05:12;102046.41;;;1.74;78.87
22572;BME280;11452;53.368;14.658;2023-01-25T20:10:18;102038.94;;;1.62;79.18
22572;BME280;11452;53.368;14.658;2023-01-25T20:15:23;102047.28;;;1.77;79.55
22572;BME280;11452;53.368;14.658;2023-01-25T20:20:29;102035.01;;;1.83;79.69
22572;BME280;11452;53.368;14.658;2023-01-25T20:25:35;102034.55;;;1.91;79.54
22572;BME280;11452;53.368;14.658;2023-01-25T20:30:40;102027.53;;;1.95;79.72
22572;BME280;11452;53.368;14.658;2023-01-25T20:35:46;102020.92;;;1.87;79.73
22572;BME280;11452;53.368;14.658;2023-01-25T20:40:58;102029.27;;;2.05;80.34
22572;BME280;11452;53.368;14.658;2023-01-25T20:46:04;102022.69;;;2.11;79.89
22572;BME280;11452;53.368;14.658;2023-01-25T20:51:11;102014.36;;;2.01;79.57
22572;BME280;11452;53.368;14.658;2023-01-25T20:56:18;102005.11;;;1.87;79.35
22572;BME280;11452;53.368;14.658;2023-01-25T21:01:25;101994.59;;;1.78;79.41
22572;BME280;11452;53.368;14.658;2023-01-25T21:06:36;101989.30;;;1.72;79.79
22572;BME280;11452;53.368;14.658;2023-01-25T21:11:42;101987.10;;;1.56;79.51
22572;BME280;11452;53.368;14.658;2023-01-25T21:16:47;101987.05;;;2.38;78.75
22572;BME280;11452;53.368;14.658;2023-01-25T21:21:53;101995.87;;;2.08;79.31
22572;BME280;11452;53.368;14.658;2023-01-25T21:26:58;101981.39;;;1.87;79.43
22572;BME280;11452;53.368;14.658;2023-01-25T21:32:04;101990.61;;;1.86;79.74
22572;BME280;11452;53.368;14.658;2023-01-25T21:37:10;101991.06;;;1.74;79.82
22572;BME280;11452;53.368;14.658;2023-01-25T21:42:16;101984.05;;;1.63;79.54
22572;BME280;11452;53.368;14.658;2023-01-25T21:47:21;101984.91;;;1.68;80.25
22572;BME280;11452;53.368;14.658;2023-01-25T21:52:28;101976.55;;;1.50;79.89
22572;BME280;11452;53.368;14.658;2023-01-25T21:57:34;101981.84;;;1.47;80.20
22572;BME280;11452;53.368;14.658;2023-01-25T22:02:40;101986.67;;;1.58;80.63
22572;BME280;11452;53.368;14.658;2023-01-25T22:07:45;101985.78;;;1.55;80.62
22572;BME280;11452;53.368;14.658;2023-01-25T22:12:51;101980.51;;;1.52;80.58
22572;BME280;11452;53.368;14.658;2023-01-25T22:17:56;101980.53;;;1.47;80.59
22572;BME280;11452;53.368;14.658;2023-01-25T22:23:02;101975.23;;;1.39;80.68
22572;BME280;11452;53.368;14.658;2023-01-25T22:28:09;101972.59;;;1.50;81.21
22572;BME280;11452;53.368;14.658;2023-01-25T22:33:16;101970.84;;;1.51;81.14
22572;BME280;11452;53.368;14.658;2023-01-25T22:38:23;101956.83;;;1.65;81.63
22572;BME280;11452;53.368;14.658;2023-01-25T22:43:28;101962.09;;;1.81;81.65
22572;BME280;11452;53.368;14.658;2023-01-25T22:48:35;101966.05;;;1.62;80.70
22572;BME280;11452;53.368;14.658;2023-01-25T22:53:41;101959.87;;;1.50;80.77
22572;BME280;11452;53.368;14.658;2023-01-25T22:58:47;101954.61;;;1.57;81.36
22572;BME280;11452;53.368;14.658;2023-01-25T23:03:53;101945.41;;;1.60;81.32
22572;BME280;11452;53.368;14.658;2023-01-25T23:09:02;101947.15;;;1.75;81.68
22572;BME280;11452;53.368;14.658;2023-01-25T23:14:10;101941.38;;;2.07;82.21
22572;BME280;11452;53.368;14.658;2023-01-25T23:19:34;101940.06;;;2.17;81.22
22572;BME280;11452;53.368;14.658;2023-01-25T23:24:39;101936.14;;;1.92;80.70
22572;BME280;11452;53.368;14.658;2023-01-25T23:29:47;101925.63;;;1.69;80.02
22572;BME280;11452;53.368;14.658;2023-01-25T23:34:53;101922.56;;;1.55;80.05
22572;BME280;11452;53.368;14.658;2023-01-25T23:39:58;101922.13;;;1.58;80.81
22572;BME280;11452;53.368;14.658;2023-01-25T23:45:05;101917.72;;;1.50;80.87
22572;BME280;11452;53.368;14.658;2023-01-25T23:50:11;101909.40;;;1.64;81.11
22572;BME280;11452;53.368;14.658;2023-01-25T23:55:17;101894.47;;;1.60;80.66
